ADDS METAR Data INFO
IDs: Format: Raw Decoded Include TAF

Data at: 0308 UTC 21 Oct 2017

KCSQ 210255Z AUTO 16013G19KT 10SM CLR 17/13 A2984 RMK AO2 P0001
KCSQ 210235Z AUTO 16013G19KT 10SM CLR 17/13 A2984 RMK AO2
KCSQ 210215Z AUTO 16011G19KT 10SM CLR 17/13 A2983 RMK AO2
KCSQ 210155Z AUTO 15013G22KT 10SM CLR 17/13 A2983 RMK AO2
KCSQ 210135Z AUTO 16014G20KT 10SM CLR 18/13 A2983 RMK AO2
KCSQ 210115Z AUTO 16015KT 10SM CLR 18/13 A2984 RMK AO2
KCSQ 210055Z AUTO 16015KT 10SM CLR 18/13 A2984 RMK AO2 P0001
KCSQ 210035Z AUTO 16013G21KT 10SM CLR 18/13 A2984 RMK AO2
KCSQ 210015Z AUTO 16011KT 10SM CLR 18/13 A2985 RMK AO2
KCSQ 202355Z AUTO 15015KT 10SM CLR 19/13 A2984 RMK AO2
KCSQ 202335Z AUTO 16015G21KT 10SM CLR 19/13 A2984 RMK AO2
KCSQ 202315Z AUTO 17015G22KT 10SM CLR 20/13 A2984 RMK AO2
KCSQ 202255Z AUTO 16016G23KT 9SM CLR 21/13 A2984 RMK AO2 P0001
KCSQ 202235Z AUTO 16019G30KT 10SM CLR 21/13 A2985 RMK AO2
KCSQ 202215Z AUTO 17018G27KT 10SM CLR 22/13 A2985 RMK AO2
KCSQ 202155Z AUTO 17018G29KT 10SM CLR 22/13 A2985 RMK AO2
KCSQ 202135Z AUTO 16021G27KT 10SM CLR 23/13 A2985 RMK AO2
KCSQ 202115Z AUTO 16020G27KT 10SM CLR 23/13 A2986 RMK AO2
KCSQ 202055Z AUTO 18023G33KT 10SM CLR 23/12 A2986 RMK AO2
KCSQ 202035Z AUTO 17014G26KT 10SM CLR 24/13 A2987 RMK AO2
KCSQ 202015Z AUTO 16016G24KT 10SM CLR 23/13 A2988 RMK AO2
KCSQ 201955Z AUTO 17013G24KT 10SM CLR 22/13 A2988 RMK AO2 P0001
KCSQ 201935Z AUTO 17016G25KT 10SM CLR 23/13 A2989 RMK AO2
KCSQ 201915Z AUTO 17015G24KT 10SM CLR 22/13 A2991 RMK AO2
KCSQ 201855Z AUTO 18019G28KT 10SM CLR 23/13 A2992 RMK AO2
KCSQ 201835Z AUTO 17018G23KT 10SM CLR 22/13 A2993 RMK AO2
KCSQ 201815Z AUTO 17017G22KT 10SM CLR 22/13 A2995 RMK AO2
KCSQ 201755Z AUTO 18016G23KT 10SM CLR 21/13 A2996 RMK AO2 P0001
KCSQ 201735Z AUTO 17017KT 10SM CLR 21/13 A2998 RMK AO2
KCSQ 201715Z AUTO 18015KT 10SM CLR 20/13 A2999 RMK AO2
KCSQ 201655Z AUTO 18017KT 10SM CLR 19/12 A3000 RMK AO2 P0001
KCSQ 201635Z AUTO 18015G20KT 10SM CLR 19/12 A3001 RMK AO2
KCSQ 201615Z AUTO 20016KT 10SM CLR 18/12 A3002 RMK AO2
KCSQ 201555Z AUTO 19015KT 10SM CLR 18/12 A3002 RMK AO2
KCSQ 201535Z AUTO 19014KT 10SM CLR 17/12 A3003 RMK AO2
KCSQ 201515Z AUTO 18016KT 10SM CLR 17/12 A3003 RMK AO2
KCSQ 201455Z AUTO 19014G20KT 10SM CLR 16/12 A3004 RMK AO2 P0001
KCSQ 201435Z AUTO 19017G23KT 10SM CLR 16/12 A3005 RMK AO2
KCSQ 201415Z AUTO 18014G19KT 10SM CLR 15/12 A3005 RMK AO2
KCSQ 201355Z AUTO 17010KT 10SM CLR 14/11 A3005 RMK AO2
KCSQ 201335Z AUTO 17010G16KT 10SM CLR 13/11 A3005 RMK AO2
KCSQ 201315Z AUTO 16009KT 10SM CLR 13/11 A3004 RMK AO2
KCSQ 201255Z AUTO 18010KT 10SM CLR 12/10 A3005 RMK AO2 P0001
KCSQ 201235Z AUTO 17011KT 10SM CLR 12/10 A3005 RMK AO2
KCSQ 201215Z AUTO 17010KT 10SM CLR 12/11 A3005 RMK AO2
KCSQ 201155Z AUTO 17009KT 10SM CLR 12/10 A3005 RMK AO2
KCSQ 201135Z AUTO 17008KT 10SM CLR 11/10 A3005 RMK AO2
KCSQ 201115Z AUTO 18007KT 10SM CLR 11/10 A3006 RMK AO2
KCSQ 201055Z AUTO 19008KT 10SM CLR 11/10 A3006 RMK AO2
KCSQ 201035Z AUTO 18008KT 10SM CLR 11/10 A3006 RMK AO2
KCSQ 201015Z AUTO 18008KT 10SM CLR 10/09 A3006 RMK AO2
KCSQ 200955Z AUTO 19008KT 10SM CLR 11/10 A3005 RMK AO2
KCSQ 200935Z AUTO 19007KT 10SM CLR 11/10 A3005 RMK AO2
KCSQ 200915Z AUTO 19008KT 10SM CLR 11/10 A3005 RMK AO2
KCSQ 200855Z AUTO 19007KT 10SM CLR 12/10 A3005 RMK AO2 P0001
KCSQ 200835Z AUTO 19008KT 10SM CLR 12/10 A3005 RMK AO2
KCSQ 200815Z AUTO 19008KT 10SM CLR 12/10 A3005 RMK AO2
KCSQ 200755Z AUTO 19008KT 10SM CLR 13/11 A3006 RMK AO2
KCSQ 200735Z AUTO 19009KT 10SM CLR 13/11 A3006 RMK AO2
KCSQ 200715Z AUTO 19009KT 10SM CLR 13/11 A3006 RMK AO2
KCSQ 200655Z AUTO 19010KT 10SM CLR 14/11 A3006 RMK AO2 P0001
KCSQ 200635Z AUTO 19011KT 10SM CLR 14/11 A3006 RMK AO2
KCSQ 200615Z AUTO 19010KT 10SM CLR 14/11 A3005 RMK AO2
KCSQ 200555Z AUTO 19010KT 10SM CLR 15/11 A3005 RMK AO2
KCSQ 200535Z AUTO 19011KT 10SM CLR 15/11 A3005 RMK AO2
KCSQ 200515Z AUTO 19011KT 10SM CLR 15/11 A3005 RMK AO2
KCSQ 200455Z AUTO 19010KT 10SM CLR 15/11 A3005 RMK AO2
KCSQ 200435Z AUTO 19011KT 10SM CLR 16/11 A3005 RMK AO2
KCSQ 200415Z AUTO 19010KT 10SM CLR 16/11 A3005 RMK AO2
KCSQ 200355Z AUTO 18010KT 10SM CLR 16/11 A3005 RMK AO2 P0001
KCSQ 200335Z AUTO 18011KT 10SM CLR 16/11 A3005 RMK AO2
KCSQ 200315Z AUTO 18009KT 10SM CLR 17/11 A3005 RMK AO2
KCSQ 200255Z AUTO 17009KT 10SM CLR 17/11 A3004 RMK AO2
KCSQ 200235Z AUTO 16008KT 10SM CLR 17/11 A3004 RMK AO2
KCSQ 200215Z AUTO 16009KT 10SM CLR 18/11 A3004 RMK AO2
KCSQ 200155Z AUTO 17009KT 10SM CLR 18/11 A3004 RMK AO2
KCSQ 200135Z AUTO 17009KT 10SM CLR 18/11 A3004 RMK AO2
KCSQ 200115Z AUTO 16008KT 10SM CLR 18/11 A3005 RMK AO2
KCSQ 200055Z AUTO 17008KT 10SM CLR 18/11 A3005 RMK AO2 P0001
KCSQ 200035Z AUTO 16008KT 10SM CLR 18/12 A3005 RMK AO2
KCSQ 200015Z AUTO 16007KT 10SM CLR 19/12 A3004 RMK AO2
KCSQ 192355Z AUTO 16007KT 8SM CLR 20/12 A3004 RMK AO2
KCSQ 192335Z AUTO 16007KT 10SM CLR 21/12 A3004 RMK AO2
KCSQ 192315Z AUTO 17008KT 10SM CLR 22/12 A3004 RMK AO2
KCSQ 192255Z AUTO 17007KT 10SM CLR 23/12 A3004 RMK AO2
KCSQ 192235Z AUTO 17010KT 10SM CLR 23/12 A3004 RMK AO2
KCSQ 192215Z AUTO 17011KT 10SM CLR 24/12 A3004 RMK AO2
KCSQ 192155Z AUTO 18014KT 10SM CLR 24/12 A3004 RMK AO2
KCSQ 192135Z AUTO 18013KT 10SM CLR 24/12 A3004 RMK AO2
KCSQ 192115Z AUTO 17012KT 9SM CLR 25/12 A3004 RMK AO2
KCSQ 192055Z AUTO 16010G16KT 10SM CLR 24/13 A3005 RMK AO2
KCSQ 192035Z AUTO 15013KT 10SM CLR 24/13 A3005 RMK AO2
KCSQ 192015Z AUTO 15012KT 10SM CLR 24/12 A3005 RMK AO2
KCSQ 191955Z AUTO 15012KT 10SM CLR 24/12 A3006 RMK AO2 P0001
KCSQ 191935Z AUTO 15011KT 10SM CLR 24/12 A3007 RMK AO2
KCSQ 191915Z AUTO 14011KT 10SM CLR 24/12 A3007 RMK AO2
KCSQ 191855Z AUTO 17012KT 10SM CLR 23/12 A3008 RMK AO2
KCSQ 191835Z AUTO 15009KT 10SM CLR 23/12 A3009 RMK AO2
KCSQ 191815Z AUTO 13011G16KT 10SM CLR 23/12 A3010 RMK AO2
KCSQ 191755Z AUTO 15010KT 10SM CLR 22/12 A3011 RMK AO2
KCSQ 191735Z AUTO 15011G16KT 10SM CLR 21/11 A3011 RMK AO2
KCSQ 191715Z AUTO 14010G16KT 10SM CLR 20/11 A3012 RMK AO2
KCSQ 191655Z AUTO 15012G17KT 10SM CLR 20/11 A3012 RMK AO2 P0001
KCSQ 191635Z AUTO 13009KT 10SM CLR 19/11 A3013 RMK AO2
KCSQ 191615Z AUTO 12013KT 10SM CLR 18/10 A3013 RMK AO2
KCSQ 191555Z AUTO 12012KT 10SM CLR 17/10 A3013 RMK AO2
KCSQ 191535Z AUTO 13009G15KT 10SM CLR 17/10 A3013 RMK AO2
KCSQ 191515Z AUTO 12011KT 10SM CLR 16/09 A3013 RMK AO2